sensor_id;sensor_type;location;lat;lon;timestamp;P1;durP1;ratioP1;P2;durP2;ratioP2
69841;SDS011;57138;51.326;-0.068;2023-07-29T00:00:38;4.65;;;1.55;;
69841;SDS011;57138;51.326;-0.068;2023-07-29T00:03:04;6.82;;;1.70;;
69841;SDS011;57138;51.326;-0.068;2023-07-29T00:05:30;8.30;;;1.90;;
69841;SDS011;57138;51.326;-0.068;2023-07-29T00:07:55;5.32;;;1.90;;
69841;SDS011;57138;51.326;-0.068;2023-07-29T00:10:21;10.00;;;1.95;;
69841;SDS011;57138;51.326;-0.068;2023-07-29T00:12:46;9.05;;;1.92;;
69841;SDS011;57138;51.326;-0.068;2023-07-29T00:15:12;7.43;;;2.20;;
69841;SDS011;57138;51.326;-0.068;2023-07-29T00:17:37;8.32;;;2.50;;
69841;SDS011;57138;51.326;-0.068;2023-07-29T00:20:03;10.82;;;1.98;;
69841;SDS011;57138;51.326;-0.068;2023-07-29T00:22:30;9.98;;;2.50;;
69841;SDS011;57138;51.326;-0.068;2023-07-29T00:24:55;7.43;;;2.33;;
69841;SDS011;57138;51.326;-0.068;2023-07-29T00:27:22;8.93;;;2.22;;
69841;SDS011;57138;51.326;-0.068;2023-07-29T00:29:47;6.28;;;1.98;;
69841;SDS011;57138;51.326;-0.068;2023-07-29T00:32:13;5.60;;;1.70;;
69841;SDS011;57138;51.326;-0.068;2023-07-29T00:34:41;5.30;;;1.60;;
69841;SDS011;57138;51.326;-0.068;2023-07-29T00:37:11;6.32;;;1.75;;
69841;SDS011;57138;51.326;-0.068;2023-07-29T00:39:37;7.72;;;2.38;;
69841;SDS011;57138;51.326;-0.068;2023-07-29T00:42:02;6.50;;;2.05;;
69841;SDS011;57138;51.326;-0.068;2023-07-29T00:44:28;5.65;;;2.25;;
69841;SDS011;57138;51.326;-0.068;2023-07-29T00:46:54;4.95;;;1.92;;
69841;SDS011;57138;51.326;-0.068;2023-07-29T00:49:20;4.70;;;2.10;;
69841;SDS011;57138;51.326;-0.068;2023-07-29T00:51:46;5.60;;;2.42;;
69841;SDS011;57138;51.326;-0.068;2023-07-29T00:54:13;5.45;;;2.60;;
69841;SDS011;57138;51.326;-0.068;2023-07-29T00:56:38;7.15;;;2.53;;
69841;SDS011;57138;51.326;-0.068;2023-07-29T00:59:05;6.68;;;2.42;;
69841;SDS011;57138;51.326;-0.068;2023-07-29T01:01:30;6.22;;;2.58;;
69841;SDS011;57138;51.326;-0.068;2023-07-29T01:03:56;5.72;;;2.58;;
69841;SDS011;57138;51.326;-0.068;2023-07-29T01:09:04;6.43;;;2.80;;
69841;SDS011;57138;51.326;-0.068;2023-07-29T01:14:40;6.60;;;2.90;;
69841;SDS011;57138;51.326;-0.068;2023-07-29T01:17:30;6.93;;;3.05;;
69841;SDS011;57138;51.326;-0.068;2023-07-29T01:20:17;9.65;;;3.28;;
69841;SDS011;57138;51.326;-0.068;2023-07-29T01:22:45;7.07;;;3.20;;
69841;SDS011;57138;51.326;-0.068;2023-07-29T01:25:12;5.70;;;3.30;;
69841;SDS011;57138;51.326;-0.068;2023-07-29T01:27:38;6.85;;;3.22;;
69841;SDS011;57138;51.326;-0.068;2023-07-29T01:30:05;6.93;;;3.28;;
69841;SDS011;57138;51.326;-0.068;2023-07-29T01:35:08;9.40;;;3.75;;
69841;SDS011;57138;51.326;-0.068;2023-07-29T01:37:40;6.85;;;3.50;;
69841;SDS011;57138;51.326;-0.068;2023-07-29T01:40:06;7.32;;;3.33;;
69841;SDS011;57138;51.326;-0.068;2023-07-29T01:42:34;7.07;;;3.55;;
69841;SDS011;57138;51.326;-0.068;2023-07-29T01:45:00;8.23;;;4.53;;
69841;SDS011;57138;51.326;-0.068;2023-07-29T01:47:25;10.15;;;3.13;;
69841;SDS011;57138;51.326;-0.068;2023-07-29T01:49:51;13.68;;;5.25;;
69841;SDS011;57138;51.326;-0.068;2023-07-29T01:52:16;6.60;;;3.35;;
69841;SDS011;57138;51.326;-0.068;2023-07-29T01:54:42;7.93;;;3.47;;
69841;SDS011;57138;51.326;-0.068;2023-07-29T01:57:07;10.18;;;3.67;;
69841;SDS011;57138;51.326;-0.068;2023-07-29T01:59:33;8.60;;;3.60;;
69841;SDS011;57138;51.326;-0.068;2023-07-29T02:01:58;9.00;;;4.25;;
69841;SDS011;57138;51.326;-0.068;2023-07-29T02:04:24;9.02;;;4.25;;
69841;SDS011;57138;51.326;-0.068;2023-07-29T02:06:49;17.58;;;5.53;;
69841;SDS011;57138;51.326;-0.068;2023-07-29T02:09:14;8.85;;;4.10;;
69841;SDS011;57138;51.326;-0.068;2023-07-29T02:11:40;9.65;;;4.43;;
69841;SDS011;57138;51.326;-0.068;2023-07-29T02:14:05;9.75;;;3.55;;
69841;SDS011;57138;51.326;-0.068;2023-07-29T02:16:31;13.55;;;4.55;;
69841;SDS011;57138;51.326;-0.068;2023-07-29T02:18:57;8.80;;;4.47;;
69841;SDS011;57138;51.326;-0.068;2023-07-29T02:21:23;14.07;;;4.57;;
69841;SDS011;57138;51.326;-0.068;2023-07-29T02:23:48;8.55;;;4.20;;
69841;SDS011;57138;51.326;-0.068;2023-07-29T02:26:14;9.07;;;4.35;;
69841;SDS011;57138;51.326;-0.068;2023-07-29T02:28:39;7.72;;;3.20;;
69841;SDS011;57138;51.326;-0.068;2023-07-29T02:33:41;8.90;;;3.65;;
69841;SDS011;57138;51.326;-0.068;2023-07-29T02:36:07;10.05;;;3.72;;
69841;SDS011;57138;51.326;-0.068;2023-07-29T02:38:32;10.73;;;3.30;;
69841;SDS011;57138;51.326;-0.068;2023-07-29T02:40:58;11.85;;;4.35;;
69841;SDS011;57138;51.326;-0.068;2023-07-29T02:43:23;11.32;;;3.72;;
69841;SDS011;57138;51.326;-0.068;2023-07-29T02:45:49;8.10;;;2.92;;
69841;SDS011;57138;51.326;-0.068;2023-07-29T02:48:14;11.23;;;3.70;;
69841;SDS011;57138;51.326;-0.068;2023-07-29T02:50:39;9.32;;;3.58;;
69841;SDS011;57138;51.326;-0.068;2023-07-29T02:53:05;9.20;;;3.22;;
69841;SDS011;57138;51.326;-0.068;2023-07-29T02:55:30;9.02;;;3.15;;
69841;SDS011;57138;51.326;-0.068;2023-07-29T02:57:56;7.03;;;3.75;;
69841;SDS011;57138;51.326;-0.068;2023-07-29T03:00:21;10.45;;;3.17;;
69841;SDS011;57138;51.326;-0.068;2023-07-29T03:02:46;9.82;;;3.50;;
69841;SDS011;57138;51.326;-0.068;2023-07-29T03:05:12;9.98;;;3.55;;
69841;SDS011;57138;51.326;-0.068;2023-07-29T03:07:37;9.10;;;3.25;;
69841;SDS011;57138;51.326;-0.068;2023-07-29T03:10:03;10.40;;;4.05;;
69841;SDS011;57138;51.326;-0.068;2023-07-29T03:12:28;13.10;;;3.92;;
69841;SDS011;57138;51.326;-0.068;2023-07-29T03:14:54;10.57;;;3.28;;
69841;SDS011;57138;51.326;-0.068;2023-07-29T03:17:19;9.70;;;3.33;;
69841;SDS011;57138;51.326;-0.068;2023-07-29T03:19:45;14.75;;;3.92;;
69841;SDS011;57138;51.326;-0.068;2023-07-29T03:22:10;10.75;;;3.80;;
69841;SDS011;57138;51.326;-0.068;2023-07-29T03:24:35;8.90;;;3.90;;
69841;SDS011;57138;51.326;-0.068;2023-07-29T03:27:01;9.48;;;3.33;;
69841;SDS011;57138;51.326;-0.068;2023-07-29T03:29:26;11.82;;;4.18;;
69841;SDS011;57138;51.326;-0.068;2023-07-29T03:31:52;9.18;;;3.83;;
69841;SDS011;57138;51.326;-0.068;2023-07-29T03:34:17;11.38;;;3.67;;
69841;SDS011;57138;51.326;-0.068;2023-07-29T03:36:42;9.65;;;4.75;;
69841;SDS011;57138;51.326;-0.068;2023-07-29T03:39:08;11.95;;;4.47;;
69841;SDS011;57138;51.326;-0.068;2023-07-29T03:41:33;10.60;;;4.43;;
69841;SDS011;57138;51.326;-0.068;2023-07-29T03:43:58;8.55;;;3.95;;
69841;SDS011;57138;51.326;-0.068;2023-07-29T03:46:24;12.07;;;4.05;;
69841;SDS011;57138;51.326;-0.068;2023-07-29T03:48:50;12.43;;;3.60;;
69841;SDS011;57138;51.326;-0.068;2023-07-29T03:51:15;9.77;;;4.22;;
69841;SDS011;57138;51.326;-0.068;2023-07-29T03:53:41;11.20;;;3.88;;
69841;SDS011;57138;51.326;-0.068;2023-07-29T03:56:07;16.45;;;4.50;;
69841;SDS011;57138;51.326;-0.068;2023-07-29T03:58:33;13.93;;;4.30;;
69841;SDS011;57138;51.326;-0.068;2023-07-29T04:00:58;10.75;;;4.10;;
69841;SDS011;57138;51.326;-0.068;2023-07-29T04:03:24;20.80;;;5.18;;
69841;SDS011;57138;51.326;-0.068;2023-07-29T04:05:49;11.13;;;4.22;;
69841;SDS011;57138;51.326;-0.068;2023-07-29T04:08:15;13.02;;;4.38;;
69841;SDS011;57138;51.326;-0.068;2023-07-29T04:10:40;14.70;;;4.43;;
69841;SDS011;57138;51.326;-0.068;2023-07-29T04:13:05;14.02;;;3.72;;
69841;SDS011;57138;51.326;-0.068;2023-07-29T04:15:31;14.38;;;5.70;;
69841;SDS011;57138;51.326;-0.068;2023-07-29T04:17:56;8.93;;;4.00;;
69841;SDS011;57138;51.326;-0.068;2023-07-29T04:20:22;10.30;;;4.80;;
69841;SDS011;57138;51.326;-0.068;2023-07-29T04:22:47;12.50;;;4.03;;
69841;SDS011;57138;51.326;-0.068;2023-07-29T04:25:13;13.18;;;4.78;;
69841;SDS011;57138;51.326;-0.068;2023-07-29T04:27:38;13.70;;;4.10;;
69841;SDS011;57138;51.326;-0.068;2023-07-29T04:30:04;16.38;;;5.18;;
69841;SDS011;57138;51.326;-0.068;2023-07-29T04:32:30;20.92;;;5.60;;
69841;SDS011;57138;51.326;-0.068;2023-07-29T04:34:56;14.77;;;4.45;;
69841;SDS011;57138;51.326;-0.068;2023-07-29T04:37:21;16.65;;;6.55;;
69841;SDS011;57138;51.326;-0.068;2023-07-29T04:39:46;16.67;;;4.72;;
69841;SDS011;57138;51.326;-0.068;2023-07-29T04:42:12;16.27;;;5.40;;
69841;SDS011;57138;51.326;-0.068;2023-07-29T04:44:37;9.70;;;4.78;;
69841;SDS011;57138;51.326;-0.068;2023-07-29T04:47:03;15.13;;;5.45;;
69841;SDS011;57138;51.326;-0.068;2023-07-29T04:49:28;11.32;;;5.00;;
69841;SDS011;57138;51.326;-0.068;2023-07-29T04:51:54;10.77;;;3.85;;
69841;SDS011;57138;51.326;-0.068;2023-07-29T04:54:19;14.93;;;5.00;;
69841;SDS011;57138;51.326;-0.068;2023-07-29T04:56:45;17.38;;;4.88;;
69841;SDS011;57138;51.326;-0.068;2023-07-29T04:59:11;12.32;;;4.75;;
69841;SDS011;57138;51.326;-0.068;2023-07-29T05:01:38;17.30;;;5.47;;
69841;SDS011;57138;51.326;-0.068;2023-07-29T05:04:03;15.88;;;4.82;;
69841;SDS011;57138;51.326;-0.068;2023-07-29T05:06:29;18.00;;;5.20;;
69841;SDS011;57138;51.326;-0.068;2023-07-29T05:08:56;15.43;;;5.18;;
69841;SDS011;57138;51.326;-0.068;2023-07-29T05:11:23;15.45;;;4.85;;
69841;SDS011;57138;51.326;-0.068;2023-07-29T05:13:50;12.93;;;4.78;;
69841;SDS011;57138;51.326;-0.068;2023-07-29T05:16:16;16.98;;;5.32;;
69841;SDS011;57138;51.326;-0.068;2023-07-29T05:18:41;12.85;;;4.63;;
69841;SDS011;57138;51.326;-0.068;2023-07-29T05:21:06;15.20;;;5.78;;
69841;SDS011;57138;51.326;-0.068;2023-07-29T05:23:33;15.60;;;5.00;;
69841;SDS011;57138;51.326;-0.068;2023-07-29T05:25:59;16.65;;;6.20;;
69841;SDS011;57138;51.326;-0.068;2023-07-29T05:28:24;19.65;;;5.00;;
69841;SDS011;57138;51.326;-0.068;2023-07-29T05:30:49;16.13;;;5.63;;
69841;SDS011;57138;51.326;-0.068;2023-07-29T05:33:15;14.13;;;5.45;;
69841;SDS011;57138;51.326;-0.068;2023-07-29T05:35:40;26.30;;;6.40;;
69841;SDS011;57138;51.326;-0.068;2023-07-29T05:38:06;12.60;;;4.50;;
69841;SDS011;57138;51.326;-0.068;2023-07-29T05:40:33;12.63;;;5.10;;
69841;SDS011;57138;51.326;-0.068;2023-07-29T05:42:58;11.98;;;4.80;;
69841;SDS011;57138;51.326;-0.068;2023-07-29T05:45:24;16.73;;;5.38;;
69841;SDS011;57138;51.326;-0.068;2023-07-29T05:47:50;15.63;;;5.38;;
69841;SDS011;57138;51.326;-0.068;2023-07-29T05:50:15;13.30;;;5.05;;
69841;SDS011;57138;51.326;-0.068;2023-07-29T05:52:41;11.73;;;5.53;;
69841;SDS011;57138;51.326;-0.068;2023-07-29T05:55:06;9.77;;;4.30;;
69841;SDS011;57138;51.326;-0.068;2023-07-29T05:57:32;13.32;;;4.70;;
69841;SDS011;57138;51.326;-0.068;2023-07-29T05:59:57;11.75;;;4.22;;
69841;SDS011;57138;51.326;-0.068;2023-07-29T06:02:23;9.52;;;3.45;;
69841;SDS011;57138;51.326;-0.068;2023-07-29T06:04:48;8.13;;;3.58;;
69841;SDS011;57138;51.326;-0.068;2023-07-29T06:07:14;9.63;;;3.88;;
69841;SDS011;57138;51.326;-0.068;2023-07-29T06:09:39;7.35;;;3.08;;
69841;SDS011;57138;51.326;-0.068;2023-07-29T06:12:05;10.10;;;3.75;;
69841;SDS011;57138;51.326;-0.068;2023-07-29T06:14:31;11.75;;;3.95;;
69841;SDS011;57138;51.326;-0.068;2023-07-29T06:16:56;8.10;;;4.28;;
69841;SDS011;57138;51.326;-0.068;2023-07-29T06:19:22;10.68;;;3.80;;
69841;SDS011;57138;51.326;-0.068;2023-07-29T06:21:48;11.80;;;4.13;;
69841;SDS011;57138;51.326;-0.068;2023-07-29T06:24:13;6.40;;;3.17;;
69841;SDS011;57138;51.326;-0.068;2023-07-29T06:26:39;9.65;;;3.40;;
69841;SDS011;57138;51.326;-0.068;2023-07-29T06:29:04;8.70;;;3.40;;
69841;SDS011;57138;51.326;-0.068;2023-07-29T06:31:30;6.65;;;3.30;;
69841;SDS011;57138;51.326;-0.068;2023-07-29T06:33:57;10.80;;;2.90;;
69841;SDS011;57138;51.326;-0.068;2023-07-29T06:36:23;7.40;;;3.33;;
69841;SDS011;57138;51.326;-0.068;2023-07-29T06:38:48;8.00;;;2.85;;
69841;SDS011;57138;51.326;-0.068;2023-07-29T06:41:13;10.90;;;3.55;;
69841;SDS011;57138;51.326;-0.068;2023-07-29T06:43:39;7.93;;;3.22;;
69841;SDS011;57138;51.326;-0.068;2023-07-29T06:46:04;8.15;;;3.20;;
69841;SDS011;57138;51.326;-0.068;2023-07-29T06:48:30;7.63;;;2.90;;
69841;SDS011;57138;51.326;-0.068;2023-07-29T06:50:55;10.50;;;3.13;;
69841;SDS011;57138;51.326;-0.068;2023-07-29T06:53:25;9.02;;;3.00;;
69841;SDS011;57138;51.326;-0.068;2023-07-29T06:55:51;7.40;;;2.72;;
69841;SDS011;57138;51.326;-0.068;2023-07-29T06:58:16;10.18;;;2.85;;
69841;SDS011;57138;51.326;-0.068;2023-07-29T07:00:42;8.27;;;3.20;;
69841;SDS011;57138;51.326;-0.068;2023-07-29T07:03:08;11.40;;;3.00;;
69841;SDS011;57138;51.326;-0.068;2023-07-29T07:05:33;11.77;;;3.20;;
69841;SDS011;57138;51.326;-0.068;2023-07-29T07:07:59;7.03;;;2.90;;
69841;SDS011;57138;51.326;-0.068;2023-07-29T07:10:24;8.15;;;2.85;;
69841;SDS011;57138;51.326;-0.068;2023-07-29T07:12:50;9.77;;;2.90;;
69841;SDS011;57138;51.326;-0.068;2023-07-29T07:15:15;7.47;;;2.42;;
69841;SDS011;57138;51.326;-0.068;2023-07-29T07:17:41;5.78;;;2.78;;
69841;SDS011;57138;51.326;-0.068;2023-07-29T07:20:07;8.18;;;2.63;;
69841;SDS011;57138;51.326;-0.068;2023-07-29T07:22:33;6.78;;;2.30;;
69841;SDS011;57138;51.326;-0.068;2023-07-29T07:24:58;4.88;;;2.13;;
69841;SDS011;57138;51.326;-0.068;2023-07-29T07:27:23;7.40;;;2.35;;
69841;SDS011;57138;51.326;-0.068;2023-07-29T07:29:49;3.95;;;2.03;;
69841;SDS011;57138;51.326;-0.068;2023-07-29T07:32:14;4.38;;;2.10;;
69841;SDS011;57138;51.326;-0.068;2023-07-29T07:34:39;5.15;;;2.42;;
69841;SDS011;57138;51.326;-0.068;2023-07-29T07:37:05;5.53;;;2.20;;
69841;SDS011;57138;51.326;-0.068;2023-07-29T07:39:31;6.35;;;2.05;;
69841;SDS011;57138;51.326;-0.068;2023-07-29T07:41:57;7.45;;;2.88;;
69841;SDS011;57138;51.326;-0.068;2023-07-29T07:44:22;5.72;;;2.75;;
69841;SDS011;57138;51.326;-0.068;2023-07-29T07:46:51;5.80;;;2.35;;
69841;SDS011;57138;51.326;-0.068;2023-07-29T07:49:16;7.78;;;2.95;;
69841;SDS011;57138;51.326;-0.068;2023-07-29T07:51:43;10.05;;;2.38;;
69841;SDS011;57138;51.326;-0.068;2023-07-29T07:54:09;8.43;;;3.13;;
69841;SDS011;57138;51.326;-0.068;2023-07-29T07:56:34;5.85;;;2.38;;
69841;SDS011;57138;51.326;-0.068;2023-07-29T07:59:00;7.00;;;2.72;;
69841;SDS011;57138;51.326;-0.068;2023-07-29T08:01:25;4.78;;;2.17;;
69841;SDS011;57138;51.326;-0.068;2023-07-29T08:03:50;6.38;;;2.30;;
69841;SDS011;57138;51.326;-0.068;2023-07-29T08:06:16;5.28;;;2.10;;
69841;SDS011;57138;51.326;-0.068;2023-07-29T08:08:41;5.22;;;2.35;;
69841;SDS011;57138;51.326;-0.068;2023-07-29T08:11:07;8.05;;;2.53;;
69841;SDS011;57138;51.326;-0.068;2023-07-29T08:13:32;6.50;;;2.10;;
69841;SDS011;57138;51.326;-0.068;2023-07-29T08:15:58;4.95;;;2.22;;
69841;SDS011;57138;51.326;-0.068;2023-07-29T08:18:23;5.72;;;2.70;;
69841;SDS011;57138;51.326;-0.068;2023-07-29T08:20:52;9.05;;;2.45;;
69841;SDS011;57138;51.326;-0.068;2023-07-29T08:23:27;6.63;;;2.33;;
69841;SDS011;57138;51.326;-0.068;2023-07-29T08:25:53;5.30;;;2.15;;
69841;SDS011;57138;51.326;-0.068;2023-07-29T08:28:24;7.75;;;2.55;;
69841;SDS011;57138;51.326;-0.068;2023-07-29T08:30:50;8.38;;;2.05;;
69841;SDS011;57138;51.326;-0.068;2023-07-29T08:33:15;8.20;;;2.67;;
69841;SDS011;57138;51.326;-0.068;2023-07-29T08:35:41;9.20;;;2.38;;
69841;SDS011;57138;51.326;-0.068;2023-07-29T08:38:06;6.85;;;2.45;;
69841;SDS011;57138;51.326;-0.068;2023-07-29T08:40:32;8.43;;;2.13;;
69841;SDS011;57138;51.326;-0.068;2023-07-29T08:43:01;8.43;;;2.50;;
69841;SDS011;57138;51.326;-0.068;2023-07-29T08:45:30;5.20;;;2.03;;
69841;SDS011;57138;51.326;-0.068;2023-07-29T08:47:59;3.90;;;1.60;;
69841;SDS011;57138;51.326;-0.068;2023-07-29T08:50:31;5.97;;;1.88;;
69841;SDS011;57138;51.326;-0.068;2023-07-29T08:52:58;6.57;;;1.83;;
69841;SDS011;57138;51.326;-0.068;2023-07-29T08:55:24;6.25;;;1.52;;
69841;SDS011;57138;51.326;-0.068;2023-07-29T08:57:50;4.68;;;1.45;;
69841;SDS011;57138;51.326;-0.068;2023-07-29T09:00:16;2.67;;;1.35;;
69841;SDS011;57138;51.326;-0.068;2023-07-29T09:02:42;3.65;;;1.70;;
69841;SDS011;57138;51.326;-0.068;2023-07-29T09:05:08;4.93;;;2.00;;
69841;SDS011;57138;51.326;-0.068;2023-07-29T09:07:33;3.95;;;1.50;;
69841;SDS011;57138;51.326;-0.068;2023-07-29T09:10:01;6.10;;;1.60;;
69841;SDS011;57138;51.326;-0.068;2023-07-29T09:12:27;3.75;;;1.75;;
69841;SDS011;57138;51.326;-0.068;2023-07-29T09:14:53;5.63;;;1.70;;
69841;SDS011;57138;51.326;-0.068;2023-07-29T09:17:19;6.40;;;1.73;;
69841;SDS011;57138;51.326;-0.068;2023-07-29T09:19:48;7.18;;;2.00;;
69841;SDS011;57138;51.326;-0.068;2023-07-29T09:22:18;7.25;;;2.42;;
69841;SDS011;57138;51.326;-0.068;2023-07-29T09:24:46;5.80;;;1.85;;
69841;SDS011;57138;51.326;-0.068;2023-07-29T09:27:33;8.15;;;2.72;;
69841;SDS011;57138;51.326;-0.068;2023-07-29T09:30:03;6.00;;;1.67;;
69841;SDS011;57138;51.326;-0.068;2023-07-29T09:32:30;6.80;;;2.30;;
69841;SDS011;57138;51.326;-0.068;2023-07-29T09:34:57;9.50;;;2.35;;
69841;SDS011;57138;51.326;-0.068;2023-07-29T09:37:23;9.95;;;3.00;;
69841;SDS011;57138;51.326;-0.068;2023-07-29T09:39:49;5.80;;;2.40;;
69841;SDS011;57138;51.326;-0.068;2023-07-29T09:42:19;10.13;;;3.25;;
69841;SDS011;57138;51.326;-0.068;2023-07-29T09:44:48;9.07;;;2.65;;
69841;SDS011;57138;51.326;-0.068;2023-07-29T09:52:19;7.63;;;2.17;;
69841;SDS011;57138;51.326;-0.068;2023-07-29T09:54:47;9.00;;;3.38;;
69841;SDS011;57138;51.326;-0.068;2023-07-29T09:57:16;9.00;;;2.33;;
69841;SDS011;57138;51.326;-0.068;2023-07-29T09:59:52;7.35;;;2.10;;
69841;SDS011;57138;51.326;-0.068;2023-07-29T10:04:45;7.88;;;2.00;;
69841;SDS011;57138;51.326;-0.068;2023-07-29T10:07:12;12.13;;;2.75;;
69841;SDS011;57138;51.326;-0.068;2023-07-29T10:09:39;8.65;;;2.10;;
69841;SDS011;57138;51.326;-0.068;2023-07-29T10:12:09;7.63;;;2.17;;
69841;SDS011;57138;51.326;-0.068;2023-07-29T10:14:39;9.93;;;2.15;;
69841;SDS011;57138;51.326;-0.068;2023-07-29T10:17:07;7.97;;;1.77;;
69841;SDS011;57138;51.326;-0.068;2023-07-29T10:19:34;10.00;;;2.13;;
69841;SDS011;57138;51.326;-0.068;2023-07-29T10:22:02;5.05;;;1.77;;
69841;SDS011;57138;51.326;-0.068;2023-07-29T10:24:32;9.35;;;2.03;;
69841;SDS011;57138;51.326;-0.068;2023-07-29T10:26:59;5.45;;;2.10;;
69841;SDS011;57138;51.326;-0.068;2023-07-29T10:29:32;8.68;;;2.67;;
69841;SDS011;57138;51.326;-0.068;2023-07-29T10:32:03;7.25;;;2.28;;
69841;SDS011;57138;51.326;-0.068;2023-07-29T10:34:31;6.18;;;2.25;;
69841;SDS011;57138;51.326;-0.068;2023-07-29T10:36:59;6.60;;;2.55;;
69841;SDS011;57138;51.326;-0.068;2023-07-29T10:39:25;6.45;;;1.85;;
69841;SDS011;57138;51.326;-0.068;2023-07-29T10:47:17;7.95;;;1.88;;
69841;SDS011;57138;51.326;-0.068;2023-07-29T10:49:55;7.47;;;1.80;;
69841;SDS011;57138;51.326;-0.068;2023-07-29T10:52:37;5.55;;;1.48;;
69841;SDS011;57138;51.326;-0.068;2023-07-29T10:55:26;6.32;;;1.55;;
69841;SDS011;57138;51.326;-0.068;2023-07-29T10:58:06;9.68;;;2.50;;
69841;SDS011;57138;51.326;-0.068;2023-07-29T11:00:41;10.60;;;2.03;;
69841;SDS011;57138;51.326;-0.068;2023-07-29T11:03:18;7.18;;;2.00;;
69841;SDS011;57138;51.326;-0.068;2023-07-29T11:05:53;5.45;;;1.70;;
69841;SDS011;57138;51.326;-0.068;2023-07-29T11:08:22;5.75;;;1.95;;
69841;SDS011;57138;51.326;-0.068;2023-07-29T11:11:01;7.97;;;1.75;;
69841;SDS011;57138;51.326;-0.068;2023-07-29T11:13:31;6.40;;;1.70;;
69841;SDS011;57138;51.326;-0.068;2023-07-29T11:15:58;5.57;;;1.70;;
69841;SDS011;57138;51.326;-0.068;2023-07-29T11:18:28;6.32;;;1.92;;
69841;SDS011;57138;51.326;-0.068;2023-07-29T11:20:59;7.00;;;2.08;;
69841;SDS011;57138;51.326;-0.068;2023-07-29T11:23:33;6.60;;;1.60;;
69841;SDS011;57138;51.326;-0.068;2023-07-29T11:25:59;5.75;;;1.52;;
69841;SDS011;57138;51.326;-0.068;2023-07-29T11:28:27;10.48;;;2.10;;
69841;SDS011;57138;51.326;-0.068;2023-07-29T11:30:53;7.53;;;2.72;;
69841;SDS011;57138;51.326;-0.068;2023-07-29T11:33:24;7.57;;;1.70;;
69841;SDS011;57138;51.326;-0.068;2023-07-29T11:35:51;4.53;;;1.52;;
69841;SDS011;57138;51.326;-0.068;2023-07-29T11:38:18;6.25;;;1.80;;
69841;SDS011;57138;51.326;-0.068;2023-07-29T11:40:54;5.47;;;1.67;;
69841;SDS011;57138;51.326;-0.068;2023-07-29T11:43:24;8.00;;;2.08;;
69841;SDS011;57138;51.326;-0.068;2023-07-29T11:45:50;7.57;;;1.63;;
69841;SDS011;57138;51.326;-0.068;2023-07-29T11:48:16;5.78;;;2.67;;
69841;SDS011;57138;51.326;-0.068;2023-07-29T11:50:42;8.80;;;1.70;;
69841;SDS011;57138;51.326;-0.068;2023-07-29T11:53:08;8.93;;;1.60;;
69841;SDS011;57138;51.326;-0.068;2023-07-29T11:55:34;6.35;;;1.90;;
69841;SDS011;57138;51.326;-0.068;2023-07-29T11:58:00;7.25;;;1.73;;
69841;SDS011;57138;51.326;-0.068;2023-07-29T12:00:26;7.35;;;2.05;;
69841;SDS011;57138;51.326;-0.068;2023-07-29T12:02:51;8.77;;;1.73;;
69841;SDS011;57138;51.326;-0.068;2023-07-29T12:05:17;12.82;;;2.22;;
69841;SDS011;57138;51.326;-0.068;2023-07-29T12:07:46;6.55;;;1.65;;
69841;SDS011;57138;51.326;-0.068;2023-07-29T12:10:12;6.28;;;1.95;;
69841;SDS011;57138;51.326;-0.068;2023-07-29T12:12:45;13.32;;;2.30;;
69841;SDS011;57138;51.326;-0.068;2023-07-29T12:15:11;8.32;;;1.70;;
69841;SDS011;57138;51.326;-0.068;2023-07-29T12:17:40;4.97;;;1.48;;
69841;SDS011;57138;51.326;-0.068;2023-07-29T12:20:07;7.03;;;1.83;;
69841;SDS011;57138;51.326;-0.068;2023-07-29T12:22:35;6.43;;;2.17;;
69841;SDS011;57138;51.326;-0.068;2023-07-29T12:25:00;7.18;;;1.92;;
69841;SDS011;57138;51.326;-0.068;2023-07-29T12:27:30;8.05;;;1.70;;
69841;SDS011;57138;51.326;-0.068;2023-07-29T12:29:55;11.70;;;2.00;;
69841;SDS011;57138;51.326;-0.068;2023-07-29T12:32:20;9.70;;;2.13;;
69841;SDS011;57138;51.326;-0.068;2023-07-29T12:34:52;6.35;;;1.70;;
69841;SDS011;57138;51.326;-0.068;2023-07-29T12:37:18;9.25;;;3.15;;
69841;SDS011;57138;51.326;-0.068;2023-07-29T12:39:44;6.50;;;1.92;;
69841;SDS011;57138;51.326;-0.068;2023-07-29T12:42:10;8.23;;;1.52;;
69841;SDS011;57138;51.326;-0.068;2023-07-29T12:44:36;6.38;;;1.52;;
69841;SDS011;57138;51.326;-0.068;2023-07-29T12:47:03;7.80;;;2.53;;
69841;SDS011;57138;51.326;-0.068;2023-07-29T12:49:30;11.65;;;2.22;;
69841;SDS011;57138;51.326;-0.068;2023-07-29T12:51:56;8.60;;;1.38;;
69841;SDS011;57138;51.326;-0.068;2023-07-29T12:54:22;9.85;;;3.05;;
69841;SDS011;57138;51.326;-0.068;2023-07-29T12:56:47;6.85;;;1.63;;
69841;SDS011;57138;51.326;-0.068;2023-07-29T12:59:13;7.10;;;1.75;;
69841;SDS011;57138;51.326;-0.068;2023-07-29T13:01:38;8.50;;;2.03;;
69841;SDS011;57138;51.326;-0.068;2023-07-29T13:04:07;10.45;;;1.90;;
69841;SDS011;57138;51.326;-0.068;2023-07-29T13:06:32;7.63;;;1.75;;
69841;SDS011;57138;51.326;-0.068;2023-07-29T13:08:58;7.55;;;1.90;;
69841;SDS011;57138;51.326;-0.068;2023-07-29T13:11:23;5.78;;;1.70;;
69841;SDS011;57138;51.326;-0.068;2023-07-29T13:13:49;8.05;;;1.70;;
69841;SDS011;57138;51.326;-0.068;2023-07-29T13:16:17;10.45;;;2.38;;
69841;SDS011;57138;51.326;-0.068;2023-07-29T13:18:43;7.47;;;1.60;;
69841;SDS011;57138;51.326;-0.068;2023-07-29T13:21:12;11.48;;;2.72;;
69841;SDS011;57138;51.326;-0.068;2023-07-29T13:23:37;11.27;;;2.47;;
69841;SDS011;57138;51.326;-0.068;2023-07-29T13:26:02;7.85;;;2.00;;
69841;SDS011;57138;51.326;-0.068;2023-07-29T13:28:28;8.23;;;3.13;;
69841;SDS011;57138;51.326;-0.068;2023-07-29T13:30:54;6.97;;;1.70;;
69841;SDS011;57138;51.326;-0.068;2023-07-29T13:33:19;7.82;;;1.83;;
69841;SDS011;57138;51.326;-0.068;2023-07-29T13:35:45;9.57;;;1.75;;
69841;SDS011;57138;51.326;-0.068;2023-07-29T13:38:13;9.48;;;1.80;;
69841;SDS011;57138;51.326;-0.068;2023-07-29T13:40:38;8.98;;;1.70;;
69841;SDS011;57138;51.326;-0.068;2023-07-29T13:43:04;9.60;;;1.65;;
69841;SDS011;57138;51.326;-0.068;2023-07-29T13:45:30;9.35;;;2.80;;
69841;SDS011;57138;51.326;-0.068;2023-07-29T13:47:56;6.03;;;1.70;;
69841;SDS011;57138;51.326;-0.068;2023-07-29T13:50:22;3.92;;;1.35;;
69841;SDS011;57138;51.326;-0.068;2023-07-29T13:52:48;8.57;;;1.85;;
69841;SDS011;57138;51.326;-0.068;2023-07-29T13:55:13;8.00;;;1.85;;
69841;SDS011;57138;51.326;-0.068;2023-07-29T13:57:39;6.68;;;1.77;;
69841;SDS011;57138;51.326;-0.068;2023-07-29T14:00:05;5.63;;;1.27;;
69841;SDS011;57138;51.326;-0.068;2023-07-29T14:02:31;6.40;;;1.40;;
69841;SDS011;57138;51.326;-0.068;2023-07-29T14:04:57;6.18;;;1.20;;
69841;SDS011;57138;51.326;-0.068;2023-07-29T14:07:22;5.88;;;1.50;;
69841;SDS011;57138;51.326;-0.068;2023-07-29T14:09:48;5.88;;;1.13;;
69841;SDS011;57138;51.326;-0.068;2023-07-29T14:12:14;12.68;;;1.75;;
69841;SDS011;57138;51.326;-0.068;2023-07-29T14:14:42;6.70;;;0.93;;
69841;SDS011;57138;51.326;-0.068;2023-07-29T14:17:08;4.88;;;1.27;;
69841;SDS011;57138;51.326;-0.068;2023-07-29T14:19:35;3.63;;;1.00;;
69841;SDS011;57138;51.326;-0.068;2023-07-29T14:22:04;5.82;;;1.00;;
69841;SDS011;57138;51.326;-0.068;2023-07-29T14:24:29;3.22;;;0.90;;
69841;SDS011;57138;51.326;-0.068;2023-07-29T14:26:55;5.07;;;0.90;;
69841;SDS011;57138;51.326;-0.068;2023-07-29T14:29:20;11.48;;;1.13;;
69841;SDS011;57138;51.326;-0.068;2023-07-29T14:31:46;4.15;;;1.10;;
69841;SDS011;57138;51.326;-0.068;2023-07-29T14:34:11;13.02;;;1.50;;
69841;SDS011;57138;51.326;-0.068;2023-07-29T14:36:37;10.23;;;2.70;;
69841;SDS011;57138;51.326;-0.068;2023-07-29T14:39:05;7.72;;;1.45;;
69841;SDS011;57138;51.326;-0.068;2023-07-29T14:41:30;8.10;;;1.70;;
69841;SDS011;57138;51.326;-0.068;2023-07-29T14:43:56;9.15;;;1.92;;
69841;SDS011;57138;51.326;-0.068;2023-07-29T14:46:22;7.13;;;1.38;;
69841;SDS011;57138;51.326;-0.068;2023-07-29T14:48:47;2.97;;;0.90;;
69841;SDS011;57138;51.326;-0.068;2023-07-29T14:51:13;5.82;;;1.30;;